Blaine, Washington
Current Conditions -  °F | °C
As of 1:53 PM on Sunday 25 Jan 2015 (Local Time) from KBLI Reporting Station
Few Clouds Few Clouds  
Wind Chill: 58°   Ceiling: Unl
Heat Index: 58°   Visibility: 10mi
Dew Point: 52°   Wind: 3mph
Humidity: 81%   Direction: 20°NNE
Pressure: 30.11"   Gusts: NA
Location:  48.99°N, 122.74°W
Report Text: KBLI 252153Z 02003KT 10SM FEW013 14/11 A3011 RMK AO2 SLP204 T01440111 $
Loading
Personal Weather Stations






























Interactive Weather Map New forecast layout! Learn more

10-Day Weather Forecast

Advertisements
Track Severe Weather on mobile